Time;durP1;ratioP1;P1;durP2;ratioP2;P2;SDS_P1;SDS_P2;PMS_P1;PMS_P2;Temp;Humidity;BMP_temperature;BMP_pressure;BME280_temperature;BME280_humidity;BME280_pressure;Samples;Min_cycle;Max_cycle;Signal;HPM_P1;HPM_P2
2023/09/20 00:01:44;;;;;;;12.20;11.90;;;17.80;99.90;;;;;;4979425;28;20720;-86
2023/09/20 00:04:15;;;;;;;12.50;12.10;;;17.80;99.90;;;;;;4991664;28;21220;-85
2023/09/20 00:10:53;;;;;;;13.10;12.50;;;17.80;99.90;;;;;;4973439;28;20487;-84
2023/09/20 00:17:34;;;;;;;12.10;11.73;;;17.80;99.90;;;;;;4974042;28;20523;-87
2023/09/20 00:20:50;;;;;;;;;;;;;;;;;;;;;
2023/09/20 00:23:42;;;;;;;12.30;12.00;;;17.80;99.90;;;;;;4976587;28;20455;-84
2023/09/20 00:26:40;;;;;;;12.50;12.20;;;17.70;99.90;;;;;;4975281;28;20814;-83
2023/09/20 00:29:47;;;;;;;12.17;11.87;;;17.60;99.90;;;;;;4975428;28;20556;-83
2023/09/20 00:32:47;;;;;;;12.47;12.07;;;17.60;99.90;;;;;;4967746;28;20474;-86
2023/09/20 00:39:03;;;;;;;11.80;11.30;;;17.70;99.90;;;;;;4973606;28;20571;-86
2023/09/20 00:42:14;;;;;;;12.07;11.67;;;17.70;99.90;;;;;;4977883;28;20514;-83
2023/09/20 00:45:10;;;;;;;12.03;11.73;;;17.70;99.90;;;;;;4949247;28;20482;-84
2023/09/20 00:48:05;;;;;;;12.30;12.00;;;17.70;99.90;;;;;;4958383;28;20463;-82
2023/09/20 00:51:15;;;;;;;12.87;12.57;;;17.60;99.90;;;;;;4980667;28;20515;-83
2023/09/20 00:54:22;;;;;;;12.20;11.90;;;17.50;99.90;;;;;;4975821;28;20455;-82
2023/09/20 00:57:34;;;;;;;12.47;11.97;;;17.60;99.90;;;;;;4977330;28;20562;-82
2023/09/20 01:00:54;;;;;;;;;;;;;;;;;;;;;
2023/09/20 01:03:44;;;;;;;12.33;11.93;;;17.60;99.90;;;;;;4980241;28;21216;-82
2023/09/20 01:07:42;;;;;;;12.80;12.40;;;17.50;99.90;;;;;;4978089;28;20539;-82
2023/09/20 01:10:31;;;;;;;11.83;11.53;;;17.50;99.90;;;;;;4974797;28;21079;-83
2023/09/20 01:13:54;;;;;;;12.30;11.80;;;17.50;99.90;;;;;;4978951;28;20455;-84
2023/09/20 01:17:10;;;;;;;12.60;12.10;;;17.50;99.90;;;;;;4975323;28;20482;-84
2023/09/20 01:20:12;;;;;;;12.23;11.93;;;17.50;99.90;;;;;;4976956;28;21066;-87
2023/09/20 01:23:08;;;;;;;12.03;11.73;;;17.60;99.90;;;;;;4980311;28;20479;-82
2023/09/20 01:29:32;;;;;;;13.17;12.57;;;17.60;99.90;;;;;;4969190;28;20459;-81
2023/09/20 01:32:46;;;;;;;12.47;12.17;;;17.50;99.90;;;;;;4977019;28;20463;-83
2023/09/20 01:35:39;;;;;;;12.53;12.23;;;17.50;99.90;;;;;;4975476;28;20839;-82
2023/09/20 01:38:46;;;;;;;13.00;12.50;;;17.40;99.90;;;;;;4975348;28;20452;-81
2023/09/20 01:41:50;;;;;;;12.40;12.00;;;17.30;99.90;;;;;;4979496;28;20464;-85
2023/09/20 01:45:04;;;;;;;12.10;11.80;;;17.30;99.90;;;;;;4981194;28;20459;-84
2023/09/20 01:48:00;;;;;;;12.60;12.23;;;17.30;99.90;;;;;;4952168;28;20465;-84
2023/09/20 01:50:32;;;;;;;12.23;11.93;;;17.30;99.90;;;;;;4952026;28;20488;-83
2023/09/20 01:56:18;;;;;;;12.83;12.33;;;17.20;99.90;;;;;;4978278;28;20469;-84
2023/09/20 01:59:26;;;;;;;12.57;12.17;;;17.30;99.90;;;;;;4973087;28;20462;-84
2023/09/20 02:02:18;;;;;;;12.07;11.77;;;17.30;99.90;;;;;;4975409;28;20456;-83
2023/09/20 02:05:28;;;;;;;12.30;12.00;;;17.30;99.90;;;;;;4978215;28;20539;-83
2023/09/20 02:08:13;;;;;;;12.63;12.13;;;17.20;99.90;;;;;;4977077;28;20505;-82
2023/09/20 02:10:42;;;;;;;12.10;11.80;;;17.20;99.90;;;;;;4976446;28;20491;-82
2023/09/20 02:13:10;;;;;;;11.80;11.50;;;17.10;99.90;;;;;;4973808;28;20485;-84
2023/09/20 02:15:41;;;;;;;12.00;11.70;;;17.00;99.90;;;;;;4976371;28;20459;-84
2023/09/20 02:18:10;;;;;;;12.57;12.07;;;16.90;99.90;;;;;;4975356;28;20550;-84
2023/09/20 02:20:38;;;;;;;12.80;12.40;;;16.90;99.90;;;;;;4975307;28;20495;-86
2023/09/20 02:23:12;;;;;;;13.17;12.60;;;16.90;99.90;;;;;;4976283;28;20460;-84
2023/09/20 02:25:41;;;;;;;12.37;12.07;;;16.90;99.90;;;;;;4978490;28;20460;-84
2023/09/20 02:28:10;;;;;;;12.43;12.00;;;16.80;99.90;;;;;;4974418;28;20518;-84
2023/09/20 02:30:41;;;;;;;12.27;11.97;;;16.80;99.90;;;;;;4980001;28;20474;-85
2023/09/20 02:33:14;;;;;;;12.63;12.23;;;16.70;99.90;;;;;;4971601;28;20474;-84
2023/09/20 02:35:45;;;;;;;12.37;12.07;;;16.70;99.90;;;;;;4974164;28;20462;-82
2023/09/20 02:38:13;;;;;;;12.57;12.17;;;16.70;99.90;;;;;;4974380;28;20456;-83
2023/09/20 02:40:45;;;;;;;12.00;11.70;;;16.70;99.90;;;;;;4973205;28;20491;-84
2023/09/20 02:43:13;;;;;;;12.50;12.20;;;16.70;99.90;;;;;;4977198;28;20469;-83
2023/09/20 02:46:08;;;;;;;12.50;12.20;;;16.70;99.90;;;;;;4975194;28;20483;-83
2023/09/20 02:48:52;;;;;;;13.03;12.33;;;16.70;99.90;;;;;;4973996;28;20463;-85
2023/09/20 02:51:23;;;;;;;12.60;12.30;;;16.70;99.90;;;;;;4975867;28;20562;-83
2023/09/20 02:53:52;;;;;;;12.47;12.07;;;16.70;99.90;;;;;;4978215;28;20466;-83
2023/09/20 02:56:19;;;;;;;12.87;12.33;;;16.80;99.90;;;;;;4976255;28;20874;-83
2023/09/20 02:58:48;;;;;;;13.03;12.50;;;16.70;99.90;;;;;;4987132;28;20467;-83
2023/09/20 03:01:18;;;;;;;12.90;12.50;;;16.70;99.90;;;;;;4976098;28;20479;-83
2023/09/20 03:04:12;;;;;;;13.30;12.90;;;16.70;99.90;;;;;;4974902;28;20448;-83
2023/09/20 03:07:02;;;;;;;13.93;13.40;;;16.70;99.90;;;;;;4975270;28;20597;-83
2023/09/20 03:09:52;;;;;;;13.23;12.83;;;16.70;99.90;;;;;;4973200;28;20468;-81
2023/09/20 03:12:52;;;;;;;13.47;13.07;;;16.70;99.90;;;;;;4975355;28;20526;-82
2023/09/20 03:19:09;;;;;;;13.73;13.23;;;16.60;99.90;;;;;;4977287;28;20456;-83
2023/09/20 03:21:48;;;;;;;13.27;12.87;;;16.60;99.90;;;;;;4974934;28;20479;-82
2023/09/20 03:24:37;;;;;;;13.70;13.40;;;16.70;99.90;;;;;;4966454;28;20474;-83
2023/09/20 03:27:06;;;;;;;13.43;12.93;;;16.70;99.90;;;;;;4975923;28;20461;-82
2023/09/20 03:29:35;;;;;;;13.00;12.70;;;16.50;99.90;;;;;;4978128;28;20474;-83
2023/09/20 03:32:04;;;;;;;12.70;12.30;;;16.50;99.90;;;;;;4979136;28;20984;-82
2023/09/20 03:34:34;;;;;;;13.33;12.90;;;16.50;99.90;;;;;;4976975;28;20515;-84
2023/09/20 03:37:03;;;;;;;13.30;12.90;;;16.50;99.90;;;;;;4977568;28;20464;-83
2023/09/20 03:39:31;;;;;;;13.37;12.97;;;16.60;99.90;;;;;;4992712;28;20543;-82
2023/09/20 03:41:59;;;;;;;13.63;13.03;;;16.50;99.90;;;;;;4974257;28;20479;-86
2023/09/20 03:44:28;;;;;;;13.87;13.37;;;16.60;99.90;;;;;;4975364;28;20980;-85
2023/09/20 03:46:56;;;;;;;13.40;12.90;;;16.60;99.90;;;;;;4977617;28;20482;-84
2023/09/20 03:49:24;;;;;;;13.27;12.87;;;16.70;99.90;;;;;;4989475;28;20491;-84
2023/09/20 03:51:54;;;;;;;13.30;12.80;;;16.70;99.90;;;;;;4988411;28;20456;-83
2023/09/20 03:54:24;;;;;;;13.73;13.13;;;16.60;99.90;;;;;;4975352;28;20460;-84
2023/09/20 03:56:52;;;;;;;13.10;12.60;;;16.60;99.90;;;;;;4992647;28;20470;-86
2023/09/20 03:59:20;;;;;;;13.93;13.43;;;16.60;99.90;;;;;;4975631;28;20459;-83
2023/09/20 04:01:48;;;;;;;13.80;13.30;;;16.60;99.90;;;;;;4972426;28;20542;-84
2023/09/20 04:04:17;;;;;;;14.47;14.00;;;16.70;99.90;;;;;;4976295;28;20886;-83
2023/09/20 04:06:46;;;;;;;13.60;13.30;;;16.50;99.90;;;;;;4978435;28;20464;-83
2023/09/20 04:09:15;;;;;;;13.60;13.10;;;16.60;99.90;;;;;;4980949;28;20470;-84
2023/09/20 04:11:44;;;;;;;14.10;13.70;;;16.50;99.90;;;;;;4976737;28;20475;-85
2023/09/20 04:14:12;;;;;;;13.97;13.53;;;16.60;99.90;;;;;;4980089;28;20479;-85
2023/09/20 04:16:40;;;;;;;14.13;13.73;;;16.50;1.00;;;;;;4980267;28;20537;-83
2023/09/20 04:19:29;;;;;;;13.90;13.30;;;16.50;99.90;;;;;;4983657;28;20459;-83
2023/09/20 04:22:32;;;;;;;13.70;13.30;;;16.50;99.90;;;;;;4977498;28;20595;-83
2023/09/20 04:25:45;;;;;;;15.07;14.37;;;16.60;99.90;;;;;;4979325;28;20463;-83
2023/09/20 04:28:43;;;;;;;13.30;12.97;;;16.60;99.90;;;;;;4977494;28;20456;-85
2023/09/20 04:32:03;;;;;;;13.93;13.53;;;16.60;99.90;;;;;;4978281;23;20495;-82
2023/09/20 04:34:37;;;;;;;14.27;13.77;;;16.70;99.90;;;;;;4969469;28;20466;-79
2023/09/20 04:37:12;;;;;;;13.27;12.77;;;16.60;99.90;;;;;;4972206;28;21290;-77
2023/09/20 04:39:44;;;;;;;13.33;13.00;;;16.60;99.90;;;;;;4968308;28;20462;-82
2023/09/20 04:42:38;;;;;;;12.93;12.63;;;16.50;99.90;;;;;;4972560;28;20487;-82
2023/09/20 04:45:38;;;;;;;14.00;13.40;;;16.60;99.90;;;;;;4973843;28;20752;-81
2023/09/20 04:48:19;;;;;;;13.77;13.27;;;16.50;99.90;;;;;;4987018;28;20554;-83
2023/09/20 04:51:03;;;;;;;13.50;13.10;;;16.50;99.90;;;;;;4975852;28;20478;-82
2023/09/20 04:54:03;;;;;;;13.50;13.10;;;16.60;99.90;;;;;;4977776;28;20460;-83
2023/09/20 04:56:36;;;;;;;13.50;13.10;;;16.50;99.90;;;;;;4974082;28;20607;-83
2023/09/20 04:59:14;;;;;;;14.00;13.50;;;16.50;99.90;;;;;;4970840;28;20829;-82
2023/09/20 05:02:00;;;;;;;14.10;13.60;;;16.50;99.90;;;;;;4976614;28;20530;-81
2023/09/20 05:04:35;;;;;;;13.30;12.90;;;16.50;99.90;;;;;;4973542;28;20467;-83
2023/09/20 05:07:13;;;;;;;14.23;13.63;;;16.50;99.90;;;;;;4975685;28;20463;-83
2023/09/20 05:10:01;;;;;;;13.30;12.80;;;16.50;99.90;;;;;;4977311;28;20479;-83
2023/09/20 05:12:49;;;;;;;14.50;13.90;;;16.50;99.90;;;;;;4978375;28;20467;-84
2023/09/20 05:15:37;;;;;;;14.50;14.00;;;16.50;99.90;;;;;;4895167;29;20455;-84
2023/09/20 05:18:13;;;;;;;13.40;13.10;;;16.60;99.90;;;;;;4916953;29;20466;-85
2023/09/20 05:20:50;;;;;;;13.67;13.17;;;16.60;99.90;;;;;;4914444;29;20482;-85
2023/09/20 05:23:18;;;;;;;13.20;12.90;;;16.60;99.90;;;;;;4918043;29;20470;-84
2023/09/20 05:25:48;;;;;;;14.07;13.67;;;16.50;99.90;;;;;;4918472;29;20492;-84
2023/09/20 05:28:19;;;;;;;14.00;13.70;;;16.50;99.90;;;;;;4915044;29;20699;-84
2023/09/20 05:30:49;;;;;;;14.20;13.80;;;16.50;99.90;;;;;;4912929;29;20573;-84
2023/09/20 05:33:39;;;;;;;14.33;13.93;;;16.50;99.90;;;;;;4896497;29;20537;-84
2023/09/20 05:37:06;;;;;;;14.80;14.10;;;16.50;99.90;;;;;;4913753;29;20606;-84
2023/09/20 05:40:21;;;;;;;14.60;14.20;;;16.50;99.90;;;;;;4914431;29;20509;-83
2023/09/20 05:43:39;;;;;;;14.30;13.90;;;16.60;99.90;;;;;;4834545;29;20460;-84
2023/09/20 05:47:05;;;;;;;14.50;14.10;;;16.60;99.90;;;;;;4865280;29;20498;-82
2023/09/20 05:49:41;;;;;;;14.60;14.20;;;16.60;99.90;;;;;;4940579;28;20495;-83
2023/09/20 05:52:43;;;;;;;14.40;14.00;;;16.60;99.90;;;;;;4975488;28;20503;-84
2023/09/20 05:55:34;;;;;;;15.10;14.40;;;16.70;99.90;;;;;;4977769;28;20498;-83
2023/09/20 05:58:31;;;;;;;14.60;14.10;;;16.70;99.90;;;;;;4977186;28;20459;-84
2023/09/20 06:05:04;;;;;;;;;;;;;;;;;;;;;
2023/09/20 06:07:44;;;;;;;15.07;14.53;;;16.60;99.90;;;;;;4974711;28;20458;-83
2023/09/20 06:10:26;;;;;;;14.80;14.30;;;16.70;99.90;;;;;;4973958;28;20475;-81
2023/09/20 06:12:54;;;;;;;14.93;14.40;;;16.70;99.90;;;;;;4971866;28;20989;-83
2023/09/20 06:15:23;;;;;;;14.53;14.07;;;16.90;99.90;;;;;;4968044;28;20948;-80
2023/09/20 06:17:51;;;;;;;14.70;14.30;;;16.90;99.90;;;;;;4971596;28;20454;-80
2023/09/20 06:20:20;;;;;;;14.37;13.90;;;16.90;99.90;;;;;;4973140;28;21291;-83
2023/09/20 06:22:50;;;;;;;14.80;14.40;;;17.00;99.90;;;;;;4972555;28;20476;-81
2023/09/20 06:25:20;;;;;;;14.83;14.33;;;17.00;99.90;;;;;;4970432;28;20538;-80
2023/09/20 06:27:54;;;;;;;14.50;14.00;;;16.90;99.90;;;;;;4971279;28;20896;-80
2023/09/20 06:30:53;;;;;;;14.40;14.00;;;17.10;99.90;;;;;;4972987;28;20482;-82
2023/09/20 06:33:58;;;;;;;14.73;14.33;;;17.00;99.90;;;;;;4967442;28;20863;-83
2023/09/20 06:36:41;;;;;;;14.77;14.40;;;17.00;99.90;;;;;;4970817;28;20459;-81
2023/09/20 06:39:56;;;;;;;14.70;14.30;;;17.10;99.90;;;;;;4972301;28;20464;-81
2023/09/20 06:43:08;;;;;;;14.07;13.70;;;17.30;99.90;;;;;;4964204;28;20569;-81
2023/09/20 06:46:14;;;;;;;14.40;14.00;;;17.30;99.90;;;;;;4971515;28;20944;-81
2023/09/20 06:50:03;;;;;;;14.40;14.00;;;17.40;99.90;;;;;;4973228;28;21026;-81
2023/09/20 06:55:55;;;;;;;14.87;14.37;;;17.50;99.90;;;;;;4955146;28;21168;-83
2023/09/20 06:58:40;;;;;;;14.23;13.83;;;17.60;99.90;;;;;;4971514;28;20463;-82
2023/09/20 07:01:59;;;;;;;14.87;14.37;;;17.60;99.90;;;;;;4971569;28;20464;-82
2023/09/20 07:05:05;;;;;;;15.03;14.47;;;17.80;99.90;;;;;;4964978;28;20463;-79
2023/09/20 07:08:01;;;;;;;14.87;14.47;;;17.90;99.90;;;;;;4973299;28;20458;-80
2023/09/20 07:14:38;;;;;;;14.80;14.40;;;18.00;99.90;;;;;;4967961;28;20961;-80
2023/09/20 07:17:35;;;;;;;14.87;14.47;;;18.20;99.90;;;;;;4967935;28;20463;-84
2023/09/20 07:20:44;;;;;;;15.47;14.97;;;18.40;99.90;;;;;;4980451;28;20571;-81
2023/09/20 07:23:29;;;;;;;14.70;14.23;;;18.50;99.90;;;;;;4972106;28;20475;-80
2023/09/20 07:26:26;;;;;;;15.80;15.17;;;18.50;99.90;;;;;;4967210;28;20555;-80
2023/09/20 07:29:38;;;;;;;14.50;14.10;;;18.60;99.90;;;;;;4970823;28;20562;-82
2023/09/20 07:32:41;;;;;;;14.83;14.23;;;18.80;99.90;;;;;;4968296;28;20522;-83
2023/09/20 07:36:05;;;;;;;14.60;14.20;;;18.80;99.90;;;;;;4966360;28;20731;-80
2023/09/20 07:39:05;;;;;;;14.00;13.63;;;18.90;99.90;;;;;;4965780;28;20456;-81
2023/09/20 07:42:00;;;;;;;13.90;13.50;;;19.10;99.90;;;;;;4959194;28;20474;-79
2023/09/20 07:44:56;;;;;;;14.30;13.90;;;19.20;99.90;;;;;;4969594;28;20559;-83
2023/09/20 07:47:54;;;;;;;14.37;13.77;;;19.50;99.90;;;;;;4973398;28;20459;-79
2023/09/20 07:51:10;;;;;;;15.10;14.50;;;19.80;99.90;;;;;;4930834;29;20493;-82
2023/09/20 07:57:22;;;;;;;14.17;13.77;;;20.60;99.90;;;;;;4931753;29;20939;-80
2023/09/20 07:59:56;;;;;;;14.13;13.70;;;20.70;99.90;;;;;;4931554;29;20484;-81
2023/09/20 08:02:54;;;;;;;14.57;13.97;;;20.80;99.90;;;;;;4931646;29;20566;-79
2023/09/20 08:06:00;;;;;;;14.30;13.90;;;20.90;99.90;;;;;;4931378;29;20934;-81
2023/09/20 08:09:31;;;;;;;14.00;13.70;;;21.10;99.90;;;;;;4930875;29;20977;-81
2023/09/20 08:12:22;;;;;;;14.00;13.50;;;21.00;99.90;;;;;;4930208;29;20513;-80
2023/09/20 08:15:12;;;;;;;14.03;13.63;;;21.00;99.90;;;;;;4929619;29;20470;-81
2023/09/20 09:01:44;;;;;;;14.90;14.30;;;22.10;99.90;;;;;;4963066;28;20568;-81
2023/09/20 09:05:06;;;;;;;15.43;14.80;;;22.00;99.90;;;;;;4970156;28;20502;-82
2023/09/20 09:08:05;;;;;;;15.17;14.67;;;21.90;99.90;;;;;;4930972;29;20495;-80
2023/09/20 09:11:14;;;;;;;14.47;14.17;;;21.90;99.90;;;;;;4956742;28;20473;-81
2023/09/20 09:17:33;;;;;;;14.47;14.00;;;21.90;99.90;;;;;;4972638;28;20458;-80
2023/09/20 09:20:58;;;;;;;14.40;14.10;;;21.90;99.90;;;;;;4969786;28;20582;-80
2023/09/20 09:27:15;;;;;;;14.17;13.83;;;21.90;99.90;;;;;;4959713;28;21066;-81
2023/09/20 09:34:18;;;;;;;15.37;14.77;;;22.00;99.90;;;;;;4969649;28;20607;-79
2023/09/20 09:37:39;;;;;;;14.43;14.03;;;22.00;99.90;;;;;;4934386;28;20457;-79
2023/09/20 09:41:18;;;;;;;15.10;14.50;;;22.10;99.90;;;;;;4969633;28;20523;-82
2023/09/20 09:44:54;;;;;;;14.60;14.20;;;22.10;99.90;;;;;;4971022;28;20983;-81
2023/09/20 09:48:13;;;;;;;14.33;13.80;;;22.20;99.90;;;;;;4971216;28;20828;-79
2023/09/20 09:54:20;;;;;;;14.57;14.17;;;22.10;99.90;;;;;;4969249;28;20454;-81
2023/09/20 10:01:04;;;;;;;15.00;14.60;;;22.20;99.90;;;;;;4969222;28;20654;-80
2023/09/20 10:04:02;;;;;;;14.37;13.97;;;22.30;99.90;;;;;;4968905;28;21079;-83
2023/09/20 10:07:38;;;;;;;14.80;14.30;;;22.30;99.90;;;;;;4972233;28;20450;-82
2023/09/20 10:10:33;;;;;;;14.80;14.40;;;22.30;99.90;;;;;;4968711;28;20526;-81
2023/09/20 10:13:28;;;;;;;15.03;14.43;;;22.50;99.90;;;;;;4961955;28;20455;-81
2023/09/20 10:16:53;;;;;;;14.63;14.23;;;22.50;99.90;;;;;;4970045;28;20491;-80
2023/09/20 10:20:25;;;;;;;14.70;14.30;;;22.50;99.90;;;;;;4964129;28;20470;-79
2023/09/20 10:26:54;;;;;;;15.03;14.53;;;22.60;99.90;;;;;;4932599;28;20519;-82
2023/09/20 10:29:52;;;;;;;15.07;14.57;;;22.60;99.90;;;;;;4966094;28;20456;-81
2023/09/20 10:33:13;;;;;;;14.53;14.03;;;22.60;99.90;;;;;;4967897;28;20480;-81
2023/09/20 10:36:47;;;;;;;14.30;13.90;;;22.70;99.90;;;;;;4923971;28;20463;-81
2023/09/20 10:43:31;;;;;;;15.63;14.80;;;22.80;99.90;;;;;;4967201;28;20472;-80
2023/09/20 10:46:17;;;;;;;14.83;14.40;;;22.90;99.90;;;;;;4892634;28;20643;-83
2023/09/20 10:49:09;;;;;;;15.00;14.50;;;22.90;99.90;;;;;;4971880;28;20486;-82
2023/09/20 10:52:15;;;;;;;14.47;13.97;;;23.00;99.90;;;;;;4971776;28;20476;-82
2023/09/20 10:55:49;;;;;;;14.40;14.00;;;23.00;99.90;;;;;;4972864;28;20447;-81
2023/09/20 10:58:59;;;;;;;15.27;14.77;;;23.10;99.90;;;;;;4970235;28;20849;-81
2023/09/20 11:01:45;;;;;;;14.83;14.33;;;23.10;99.90;;;;;;4970184;28;20478;-80
2023/09/20 11:04:38;;;;;;;14.40;14.00;;;23.00;99.90;;;;;;4967796;28;20511;-82
2023/09/20 11:07:34;;;;;;;14.63;14.13;;;23.10;99.90;;;;;;4957097;28;20554;-81
2023/09/20 11:10:34;;;;;;;14.53;14.03;;;23.10;99.90;;;;;;4970910;28;20558;-82
2023/09/20 11:16:48;;;;;;;15.13;14.53;;;23.20;99.90;;;;;;4984833;28;20462;-80
2023/09/20 11:22:45;;;;;;;15.00;14.40;;;23.40;99.90;;;;;;4969421;28;20470;-80
2023/09/20 11:25:36;;;;;;;15.10;14.60;;;23.40;99.90;;;;;;4983793;28;20482;-82
2023/09/20 11:32:40;;;;;;;14.63;14.23;;;23.50;99.90;;;;;;4968645;28;20476;-80
2023/09/20 11:35:46;;;;;;;15.70;15.20;;;23.50;99.90;;;;;;4968775;28;20456;-80
2023/09/20 11:39:23;;;;;;;15.30;14.67;;;23.50;99.90;;;;;;4967699;28;20438;-81
2023/09/20 11:42:30;;;;;;;15.30;14.83;;;23.50;99.90;;;;;;4968390;28;20462;-81
2023/09/20 11:45:41;;;;;;;15.60;15.20;;;23.60;99.90;;;;;;4965531;28;20485;-83
2023/09/20 11:49:04;;;;;;;16.00;15.33;;;23.60;99.90;;;;;;4967750;28;20490;-82
2023/09/20 11:51:58;;;;;;;14.33;14.03;;;23.60;99.90;;;;;;4966917;28;20479;-82
2023/09/20 11:54:29;;;;;;;14.97;14.57;;;23.60;99.90;;;;;;4964203;28;20505;-82
2023/09/20 11:57:07;;;;;;;15.57;15.07;;;23.60;99.90;;;;;;4969640;28;20470;-80
2023/09/20 12:03:28;;;;;;;14.30;13.90;;;23.70;99.90;;;;;;4969782;28;21047;-81
2023/09/20 12:09:46;;;;;;;14.50;14.10;;;23.80;99.90;;;;;;4968359;28;20490;-82
2023/09/20 12:12:49;;;;;;;15.13;14.63;;;23.90;99.90;;;;;;4967491;28;20505;-85
2023/09/20 12:15:51;;;;;;;14.90;14.20;;;24.00;99.90;;;;;;4970008;28;20455;-82
2023/09/20 12:21:36;;;;;;;14.40;14.00;;;24.00;99.90;;;;;;4965100;28;22729;-81
2023/09/20 12:24:54;;;;;;;14.63;14.13;;;24.10;99.90;;;;;;4967196;28;20481;-80
2023/09/20 12:27:49;;;;;;;15.03;14.53;;;24.00;99.90;;;;;;4969940;28;20525;-81
2023/09/20 12:30:40;;;;;;;14.97;14.37;;;24.10;99.90;;;;;;4971333;28;20570;-81
2023/09/20 12:33:27;;;;;;;14.57;14.17;;;24.10;99.90;;;;;;4939869;28;20479;-84
2023/09/20 12:36:10;;;;;;;14.30;13.90;;;24.10;99.90;;;;;;4923369;28;20480;-84
2023/09/20 12:39:16;;;;;;;14.43;14.03;;;24.10;99.90;;;;;;4962836;28;20461;-81
2023/09/20 12:42:33;;;;;;;14.50;14.10;;;24.10;99.90;;;;;;4911817;29;20462;-83
2023/09/20 12:45:46;;;;;;;14.80;14.37;;;24.10;99.90;;;;;;4911951;29;20576;-82
2023/09/20 12:48:38;;;;;;;14.10;13.60;;;24.10;99.90;;;;;;4918575;29;20569;-82
2023/09/20 12:51:52;;;;;;;13.83;13.43;;;24.20;99.90;;;;;;4908822;29;20478;-81
2023/09/20 12:55:04;;;;;;;13.73;13.40;;;24.20;99.90;;;;;;4892480;29;20481;-82
2023/09/20 13:04:29;;;;;;;13.90;13.50;;;24.20;99.90;;;;;;4912662;29;20470;-82
2023/09/20 13:07:26;;;;;;;14.50;14.00;;;24.20;99.90;;;;;;4914838;29;20466;-81
2023/09/20 13:13:36;;;;;;;13.47;13.07;;;24.30;99.90;;;;;;4911836;29;20802;-82
2023/09/20 13:16:56;;;;;;;13.47;13.07;;;24.30;99.90;;;;;;4900127;29;20473;-82
2023/09/20 13:23:34;;;;;;;;;;;;;;;;;;;;;
2023/09/20 13:27:05;;;;;;;13.60;13.20;;;24.20;99.90;;;;;;4923782;29;20441;-82
2023/09/20 13:30:27;;;;;;;13.20;12.90;;;24.30;99.90;;;;;;4925275;29;20449;-81
2023/09/20 13:33:31;;;;;;;13.37;13.07;;;24.40;99.90;;;;;;4922990;29;20464;-79
2023/09/20 13:36:44;;;;;;;13.43;13.03;;;24.40;99.90;;;;;;4927085;29;20454;-82
2023/09/20 13:43:32;;;;;;;13.60;13.20;;;24.40;99.90;;;;;;4906195;29;20960;-81
2023/09/20 13:50:42;;;;;;;13.10;12.80;;;24.50;99.90;;;;;;4919589;29;21019;-80
2023/09/20 13:53:59;;;;;;;13.40;12.90;;;24.60;99.90;;;;;;4922402;29;20453;-81
2023/09/20 13:57:05;;;;;;;13.30;13.00;;;24.60;99.90;;;;;;4922451;29;20450;-82
2023/09/20 14:00:16;;;;;;;12.93;12.63;;;24.60;99.90;;;;;;4922081;29;20477;-83
2023/09/20 14:03:24;;;;;;;12.80;12.40;;;24.60;99.90;;;;;;4921129;29;20454;-80
2023/09/20 14:06:28;;;;;;;13.00;12.63;;;24.70;99.90;;;;;;4920739;28;20481;-78
2023/09/20 14:09:27;;;;;;;13.20;12.90;;;24.70;99.90;;;;;;4927001;29;20454;-80
2023/09/20 14:16:22;;;;;;;13.10;12.80;;;24.70;99.90;;;;;;4921543;29;20472;-84
2023/09/20 14:23:07;;;;;;;13.10;12.80;;;24.60;99.90;;;;;;4896521;29;20557;-85
2023/09/20 14:26:05;;;;;;;12.80;12.50;;;24.60;99.90;;;;;;4923253;29;20478;-84
2023/09/20 14:33:12;;;;;;;;;;;;;;;;;;;;;
2023/09/20 14:36:49;;;;;;;12.70;12.40;;;24.70;99.90;;;;;;4913740;29;20457;-82
2023/09/20 14:52:34;;;;;;;13.00;12.70;;;24.80;99.90;;;;;;4817843;29;21160;-83
2023/09/20 14:58:30;;;;;;;13.20;12.80;;;24.70;99.90;;;;;;4794976;29;20470;-83
2023/09/20 15:01:29;;;;;;;13.57;13.20;;;24.70;99.90;;;;;;4802231;29;20572;-85
2023/09/20 15:04:17;;;;;;;12.87;12.57;;;24.70;99.90;;;;;;4797447;29;21158;-82
2023/09/20 15:07:16;;;;;;;13.20;12.70;;;24.70;99.90;;;;;;4799829;29;20623;-85
2023/09/20 15:10:37;;;;;;;13.13;12.60;;;24.70;99.90;;;;;;4800621;29;20493;-83
2023/09/20 15:13:44;;;;;;;13.33;12.93;;;24.70;99.90;;;;;;4802168;29;20479;-82
2023/09/20 15:16:33;;;;;;;13.20;12.80;;;24.70;99.90;;;;;;4797512;29;20463;-84
2023/09/20 15:19:39;;;;;;;13.23;12.83;;;24.70;99.90;;;;;;4797587;29;20491;-83
2023/09/20 15:22:31;;;;;;;12.80;12.50;;;24.70;99.90;;;;;;4794949;29;20703;-83
2023/09/20 15:26:21;;;;;;;13.83;13.23;;;24.70;99.90;;;;;;4798948;29;20543;-81
2023/09/20 15:29:19;;;;;;;13.27;12.80;;;24.70;99.90;;;;;;4797604;29;21272;-82
2023/09/20 15:32:03;;;;;;;13.07;12.67;;;24.70;99.90;;;;;;4795175;29;20488;-83
2023/09/20 15:35:09;;;;;;;13.30;13.00;;;24.70;99.90;;;;;;4788733;29;20476;-81
2023/09/20 15:37:57;;;;;;;12.67;12.37;;;24.70;99.90;;;;;;4801641;29;20551;-83
2023/09/20 15:44:29;;;;;;;13.20;12.90;;;24.70;99.90;;;;;;4776041;29;20909;-82
2023/09/20 15:47:36;;;;;;;11.97;11.60;;;24.70;99.90;;;;;;4811134;29;20472;-83
2023/09/20 15:50:20;;;;;;;11.57;11.20;;;24.70;99.90;;;;;;4793642;29;20550;-82
2023/09/20 15:53:40;;;;;;;;;;;;;;;;;;;;;
2023/09/20 15:56:50;;;;;;;11.70;11.30;;;24.60;99.90;;;;;;4800650;29;20457;-83
2023/09/20 15:59:49;;;;;;;12.80;12.40;;;24.70;99.90;;;;;;4798105;29;20460;-82
2023/09/20 16:02:58;;;;;;;13.83;13.40;;;24.70;99.90;;;;;;4801506;29;20503;-85
2023/09/20 16:06:16;;;;;;;13.13;12.83;;;24.70;99.90;;;;;;4807359;29;20482;-86
2023/09/20 16:12:27;;;;;;;13.57;13.27;;;24.70;99.90;;;;;;4799609;29;20531;-83
2023/09/20 16:18:27;;;;;;;13.33;12.97;;;24.70;99.90;;;;;;4799995;29;20495;-81
2023/09/20 16:21:21;;;;;;;12.80;12.50;;;24.70;99.90;;;;;;4804616;29;20590;-82
2023/09/20 16:24:34;;;;;;;12.27;11.97;;;24.70;99.90;;;;;;4807094;29;20458;-83
2023/09/20 16:27:22;;;;;;;12.60;12.23;;;24.70;99.90;;;;;;4804104;29;22076;-82
2023/09/20 16:30:32;;;;;;;13.17;12.73;;;24.60;99.90;;;;;;4825139;23;21829;-82
2023/09/20 16:33:34;;;;;;;13.30;12.80;;;24.60;99.90;;;;;;4863466;29;20472;-81
2023/09/20 16:36:32;;;;;;;13.93;13.30;;;24.60;99.90;;;;;;4866162;29;20476;-84
2023/09/20 16:39:23;;;;;;;12.70;12.40;;;24.60;99.90;;;;;;4860674;29;20525;-82
2023/09/20 16:42:00;;;;;;;13.03;12.67;;;24.60;99.90;;;;;;4864080;29;20473;-82
2023/09/20 16:44:58;;;;;;;12.30;12.00;;;24.60;99.90;;;;;;4859691;29;20553;-83
2023/09/20 16:48:00;;;;;;;12.10;11.80;;;24.60;99.90;;;;;;4857330;29;20494;-85
2023/09/20 16:50:47;;;;;;;12.30;12.00;;;24.60;99.90;;;;;;4862142;29;20535;-85
2023/09/20 16:53:45;;;;;;;13.20;12.60;;;24.60;99.90;;;;;;4862035;29;20472;-82
2023/09/20 16:56:22;;;;;;;12.10;11.80;;;24.60;99.90;;;;;;4855098;29;20461;-79
2023/09/20 16:59:23;;;;;;;12.00;11.80;;;24.50;99.90;;;;;;4856938;29;20492;-83
2023/09/20 17:02:27;;;;;;;12.37;12.07;;;24.50;99.90;;;;;;4848083;29;20521;-84
2023/09/20 17:05:15;;;;;;;12.57;12.17;;;24.50;99.90;;;;;;4856683;29;21172;-83
2023/09/20 17:08:43;;;;;;;12.00;11.50;;;24.50;99.90;;;;;;4856337;29;21096;-82
2023/09/20 17:11:18;;;;;;;11.80;11.50;;;24.40;99.90;;;;;;4864399;23;20527;-83
2023/09/20 17:13:46;;;;;;;13.03;12.63;;;24.40;99.90;;;;;;4860337;29;20469;-82
2023/09/20 17:16:19;;;;;;;12.40;12.10;;;24.40;99.90;;;;;;4862156;29;20457;-84
2023/09/20 17:19:14;;;;;;;12.77;12.30;;;24.40;99.90;;;;;;4860901;29;21179;-83
2023/09/20 17:26:42;;;;;;;19.03;13.80;;;24.20;99.90;;;;;;4744418;30;20478;-84
2023/09/20 17:29:17;;;;;;;12.90;12.60;;;24.10;99.90;;;;;;4806583;29;20990;-85
2023/09/20 17:31:59;;;;;;;14.30;13.70;;;24.00;99.90;;;;;;4788817;29;21351;-83
2023/09/20 17:34:59;;;;;;;13.73;13.40;;;23.90;99.90;;;;;;4862662;29;20460;-83
2023/09/20 17:37:53;;;;;;;13.83;13.33;;;23.80;99.90;;;;;;4877140;29;20467;-83
2023/09/20 17:40:29;;;;;;;13.40;13.10;;;23.80;99.90;;;;;;4861274;29;20516;-83
2023/09/20 17:42:58;;;;;;;12.60;12.20;;;23.70;99.90;;;;;;4862150;29;20457;-84
2023/09/20 17:45:35;;;;;;;14.20;13.80;;;23.60;99.90;;;;;;4863544;29;20559;-82
2023/09/20 17:48:08;;;;;;;14.30;13.80;;;23.50;99.90;;;;;;4859895;29;20500;-81
2023/09/20 17:50:42;;;;;;;13.87;13.47;;;23.50;99.90;;;;;;4860490;29;20571;-79
2023/09/20 17:53:18;;;;;;;14.00;13.50;;;23.40;99.90;;;;;;4858153;29;20464;-79
2023/09/20 17:55:57;;;;;;;13.50;13.20;;;23.40;99.90;;;;;;4858653;29;20460;-79
2023/09/20 18:01:45;;;;;;;12.93;12.63;;;23.20;99.90;;;;;;4857393;29;20874;-80